Fort Stockton, TX

5:27 PM CST on February 14, 2016 (GMT -0600)
Fort Stockton RV Park | | Change Station
CLOSE
Current Station
Personal Weather Station
Location: Fort Stockton, TX
Elevation: 2910 ft
Nearby Weather Stations

Elev 2910 ft 30.89 °N, 102.80 °W | Updated 1 second ago

Clear
Clear
68.3 °F
Feels Like 68.3 °F
N
1.9
Wind Variable Wind from WNW
Gusts 9.0 mph

Today
High -- | Low -- °F
--% Chance of Precip.
Yesterday
High -- | Low -- °F
Precip. -- in
Pressure 29.81 in
Visibility 10.0 miles
Clouds Clear
Dew Point 31 °F
Humidity 24%
Rainfall 0.00 in
Snow Depth Not available.
7:33 AM 6:38 PM
Waxing Crescent, 46% visible
METAR KFST 142253Z AUTO 33006KT 10SM CLR 20/M01 A2990 RMK AO2 SLP093 T02001011 $
Pressure 29.81 in
Visibility 10.0 miles
Clouds Clear
Dew Point 31 °F
Humidity 24%
Rainfall 0.00 in
Snow Depth Not available.
7:33 AM 6:38 PM
Waxing Crescent, 46% visible
METAR KFST 142253Z AUTO 33006KT 10SM CLR 20/M01 A2990 RMK AO2 SLP093 T02001011 $

10-Day Weather Forecast

Almanac

Astronomy

Feb. 14, 2016 Rise Set
Actual Time
Civil Twilight
Nautical Twilight
Astronomical Twilight
Moon
Length of Visible Light
Length of Day
Tomorrow will be .
, % of the Moon is Illuminated

Today's Extremes

State Highs State Lows

Community

WunderPhotos

Upload Photos

1,892,915 photos uploaded!

WunderBlog® & News

Nearby

Air Quality

  Air Quality AQ Index Pollutant
Not available.

Snow Depth

Station Depth Elevation

Earthquake Activity

City Distance Mag. Time & Date
Minimum magnitude displayed is 2.5.

Coastal Water Temperatures

Place Temperature

Stations

Nearby Weather Stations

Station Location Temp. Windchill Dew Point Humidity Wind Precip. Elev Updated Type
                   

Watches & Warnings

There are currently no watches in effect.